Terminal Aerodrome Forecast
Issued by NWS

Current Version | Previous Version | Graphics & Text | Print | Product List | Glossary On
Versions: 1 2 3 4 5 6 7 8 9 10 11 12 13 14 15 16 17 18 19 20 21 22 23 24 25 26 27 28 29 30 31 32
953
FTUS41 KRNK 301028 AAA
TAFLWB
TAF AMD
KLWB 301028Z 3010/3106 00000KT 1/4SM FG OVC001
     FM301300 00000KT P6SM BKN015
     FM301400 00000KT P6SM BKN120
     FM301800 34005KT P6SM VCTS BKN040CB
     FM310000 00000KT P6SM SCT050 BKN250=

USA.gov is the U.S. government's official web portal to all federal, state and local government web resources and services.